createdAt,value
2023-03-22T00:01:46.197Z,7.80
2023-03-22T00:04:12.682Z,7.82
2023-03-22T00:06:39.096Z,7.40
2023-03-22T00:09:05.708Z,7.65
2023-03-22T00:11:32.189Z,7.68
2023-03-22T00:13:58.920Z,7.70
2023-03-22T00:16:25.523Z,7.95
2023-03-22T00:18:51.948Z,7.68
2023-03-22T00:21:18.677Z,8.27
2023-03-22T00:23:45.503Z,8.75
2023-03-22T00:26:13.105Z,7.97
2023-03-22T00:28:39.745Z,8.07
2023-03-22T00:31:06.705Z,7.95
2023-03-22T00:33:33.337Z,7.85
2023-03-22T00:36:01.889Z,8.65
2023-03-22T00:38:42.970Z,7.93
2023-03-22T00:41:21.243Z,7.55
2023-03-22T00:43:48.519Z,8.20
2023-03-22T00:46:16.201Z,8.23
2023-03-22T00:48:43.080Z,7.72
2023-03-22T00:51:09.845Z,7.38
2023-03-22T00:53:37.002Z,6.80
2023-03-22T00:56:04.904Z,7.65
2023-03-22T00:58:31.553Z,7.70
2023-03-22T01:00:58.049Z,7.45
2023-03-22T01:03:24.762Z,7.43
2023-03-22T01:05:55.373Z,7.05
2023-03-22T01:08:23.026Z,7.03
2023-03-22T01:10:50.204Z,7.30
2023-03-22T01:13:17.962Z,6.65
2023-03-22T01:15:44.819Z,7.95
2023-03-22T01:18:11.276Z,7.40
2023-03-22T01:20:37.891Z,6.88
2023-03-22T01:23:04.711Z,7.47
2023-03-22T01:25:31.394Z,7.78
2023-03-22T01:27:57.910Z,7.68
2023-03-22T01:30:24.355Z,6.88
2023-03-22T01:32:51.270Z,7.25
2023-03-22T01:35:17.730Z,7.80
2023-03-22T01:37:44.141Z,7.53
2023-03-22T01:40:12.915Z,8.00
2023-03-22T01:42:39.339Z,6.90
2023-03-22T01:45:27.317Z,7.60
2023-03-22T01:47:59.791Z,7.30
2023-03-22T01:52:53.310Z,7.85
2023-03-22T01:55:22.757Z,7.13
2023-03-22T01:57:49.740Z,7.80
2023-03-22T02:00:19.004Z,7.75
2023-03-22T02:02:48.492Z,7.20
2023-03-22T02:05:15.401Z,7.78
2023-03-22T02:07:42.793Z,7.63
2023-03-22T02:10:14.173Z,7.50
2023-03-22T02:12:47.504Z,7.93
2023-03-22T02:15:16.799Z,8.25
2023-03-22T02:18:06.447Z,7.90
2023-03-22T02:20:55.556Z,8.20
2023-03-22T02:23:37.757Z,8.40
2023-03-22T02:26:13.072Z,8.50
2023-03-22T02:29:04.625Z,8.07
2023-03-22T02:32:01.897Z,8.18
2023-03-22T02:34:46.581Z,8.07
2023-03-22T02:37:37.668Z,7.68
2023-03-22T02:40:22.611Z,8.07
2023-03-22T02:43:01.351Z,7.50
2023-03-22T02:45:34.777Z,8.02
2023-03-22T02:48:14.073Z,7.63
2023-03-22T02:50:44.498Z,7.38
2023-03-22T02:53:16.364Z,7.85
2023-03-22T02:55:55.754Z,7.40
2023-03-22T02:58:39.232Z,7.95
2023-03-22T03:01:09.516Z,8.57
2023-03-22T03:03:39.852Z,7.32
2023-03-22T03:06:10.527Z,7.95
2023-03-22T03:08:38.204Z,7.50
2023-03-22T03:11:05.090Z,7.28
2023-03-22T03:13:31.477Z,7.88
2023-03-22T03:15:59.563Z,7.45
2023-03-22T03:18:54.116Z,8.00
2023-03-22T03:21:30.236Z,8.07
2023-03-22T03:24:18.648Z,8.02
2023-03-22T03:27:02.687Z,7.85
2023-03-22T03:29:39.865Z,8.20
2023-03-22T03:32:12.086Z,8.25
2023-03-22T03:34:43.294Z,7.95
2023-03-22T03:37:13.651Z,7.50
2023-03-22T03:39:44.366Z,8.48
2023-03-22T03:42:12.748Z,7.38
2023-03-22T03:44:39.389Z,8.25
2023-03-22T03:47:07.848Z,8.55
2023-03-22T03:49:34.715Z,7.82
2023-03-22T03:52:01.420Z,7.63
2023-03-22T03:54:27.806Z,8.40
2023-03-22T03:56:54.418Z,8.48
2023-03-22T03:59:20.939Z,8.65
2023-03-22T04:01:50.537Z,8.25
2023-03-22T04:04:26.683Z,8.13
2023-03-22T04:06:58.462Z,7.95
2023-03-22T04:09:29.607Z,8.15
2023-03-22T04:11:56.491Z,8.93
2023-03-22T04:14:23.495Z,8.80
2023-03-22T04:16:49.994Z,8.82
2023-03-22T04:19:16.775Z,8.65
2023-03-22T04:21:43.167Z,8.35
2023-03-22T04:24:09.930Z,9.43
2023-03-22T04:26:36.342Z,8.90
2023-03-22T04:29:03.310Z,8.70
2023-03-22T04:31:31.055Z,8.98
2023-03-22T04:33:57.493Z,8.98
2023-03-22T04:36:24.778Z,9.30
2023-03-22T04:38:51.571Z,9.57
2023-03-22T04:41:18.417Z,8.73
2023-03-22T04:43:46.826Z,9.20
2023-03-22T04:46:13.969Z,8.82
2023-03-22T04:48:41.655Z,9.18
2023-03-22T04:51:09.313Z,9.82
2023-03-22T04:53:38.627Z,9.32
2023-03-22T04:56:07.026Z,9.35
2023-03-22T04:58:35.245Z,9.45
2023-03-22T05:01:02.016Z,9.90
2023-03-22T05:03:28.428Z,9.95
2023-03-22T05:05:57.029Z,10.23
2023-03-22T05:08:27.254Z,9.35
2023-03-22T05:10:55.328Z,9.48
2023-03-22T05:13:23.574Z,9.95
2023-03-22T05:15:51.648Z,9.52
2023-03-22T05:18:20.535Z,10.32
2023-03-22T05:20:47.922Z,9.93
2023-03-22T05:23:18.978Z,9.43
2023-03-22T05:25:46.754Z,10.10
2023-03-22T05:28:14.273Z,9.63
2023-03-22T05:30:42.058Z,9.70
2023-03-22T05:33:09.450Z,9.20
2023-03-22T05:35:38.224Z,9.02
2023-03-22T05:38:05.681Z,10.20
2023-03-22T05:40:32.435Z,10.13
2023-03-22T05:42:58.952Z,10.02
2023-03-22T05:45:25.740Z,9.95
2023-03-22T05:47:52.311Z,9.60
2023-03-22T05:50:20.932Z,10.40
2023-03-22T05:52:47.810Z,9.50
2023-03-22T05:55:17.395Z,9.73
2023-03-22T05:57:44.784Z,9.05
2023-03-22T06:00:14.954Z,10.00
2023-03-22T06:02:42.766Z,9.80
2023-03-22T06:05:11.156Z,9.32
2023-03-22T06:07:38.230Z,9.60
2023-03-22T06:10:05.725Z,9.40
2023-03-22T06:12:32.660Z,9.02
2023-03-22T06:14:59.299Z,9.07
2023-03-22T06:17:25.692Z,9.73
2023-03-22T06:19:53.275Z,9.20
2023-03-22T06:22:19.829Z,9.32
2023-03-22T06:24:46.336Z,9.23
2023-03-22T06:27:12.869Z,9.02
2023-03-22T06:29:39.471Z,8.65
2023-03-22T06:32:06.563Z,8.15
2023-03-22T06:34:33.468Z,7.65
2023-03-22T06:37:00.657Z,7.45
2023-03-22T06:39:27.045Z,8.10
2023-03-22T06:41:53.534Z,7.45
2023-03-22T06:44:20.016Z,7.85
2023-03-22T06:46:47.486Z,7.82
2023-03-22T06:49:13.862Z,7.43
2023-03-22T06:51:40.254Z,7.50
2023-03-22T06:54:06.659Z,8.05
2023-03-22T06:56:33.074Z,7.00
2023-03-22T06:58:59.520Z,7.40
2023-03-22T07:01:26.322Z,6.65
2023-03-22T07:03:52.754Z,7.10
2023-03-22T07:06:19.112Z,6.50
2023-03-22T07:08:45.634Z,6.05
2023-03-22T07:11:12.029Z,6.07
2023-03-22T07:13:38.483Z,6.00
2023-03-22T07:16:05.325Z,5.43
2023-03-22T07:18:31.847Z,5.97
2023-03-22T07:20:58.260Z,5.88
2023-03-22T07:23:24.772Z,4.90
2023-03-22T07:25:51.964Z,6.10
2023-03-22T07:28:18.351Z,5.00
2023-03-22T07:30:44.752Z,5.40
2023-03-22T07:33:11.339Z,4.68
2023-03-22T07:35:38.448Z,5.40
2023-03-22T07:38:05.319Z,5.03
2023-03-22T07:40:31.769Z,5.30
2023-03-22T07:42:59.058Z,4.80
2023-03-22T07:45:26.054Z,5.70
2023-03-22T07:47:52.533Z,5.10
2023-03-22T07:50:19.318Z,5.00
2023-03-22T07:52:45.892Z,5.22
2023-03-22T07:55:14.209Z,5.68
2023-03-22T07:57:40.857Z,5.60
2023-03-22T08:00:10.440Z,5.97
2023-03-22T08:02:37.686Z,4.90
2023-03-22T08:05:05.387Z,5.55
2023-03-22T08:07:32.379Z,5.30
2023-03-22T08:09:59.320Z,5.80
2023-03-22T08:12:28.066Z,5.95
2023-03-22T08:14:54.502Z,5.53
2023-03-22T08:17:20.960Z,5.22
2023-03-22T08:19:47.354Z,5.00
2023-03-22T08:22:13.772Z,4.88
2023-03-22T08:24:40.244Z,5.32
2023-03-22T08:27:06.706Z,4.82
2023-03-22T08:29:33.847Z,4.68
2023-03-22T08:32:02.265Z,4.90
2023-03-22T08:34:29.913Z,4.38
2023-03-22T08:36:56.360Z,4.68
2023-03-22T08:39:24.743Z,4.40
2023-03-22T08:41:51.390Z,4.88
2023-03-22T08:44:17.767Z,4.53
2023-03-22T08:46:44.159Z,5.40
2023-03-22T08:49:10.708Z,5.40
2023-03-22T08:51:37.097Z,4.50
2023-03-22T08:54:03.870Z,4.38
2023-03-22T08:56:30.501Z,4.75
2023-03-22T08:58:56.884Z,4.30
2023-03-22T09:01:23.392Z,4.78
2023-03-22T09:03:49.904Z,4.38
2023-03-22T09:06:16.353Z,4.53
2023-03-22T09:08:42.763Z,4.25
2023-03-22T09:11:10.288Z,3.95
2023-03-22T09:13:36.728Z,3.85
2023-03-22T09:16:04.290Z,3.90
2023-03-22T09:18:31.009Z,4.10
2023-03-22T09:20:57.741Z,4.03
2023-03-22T09:23:24.117Z,3.80
2023-03-22T09:25:51.096Z,3.63
2023-03-22T09:28:17.739Z,3.58
2023-03-22T09:30:46.481Z,3.67
2023-03-22T09:33:12.962Z,4.18
2023-03-22T09:35:43.530Z,3.83
2023-03-22T09:38:10.886Z,3.85
2023-03-22T09:40:39.735Z,3.72
2023-03-22T09:43:09.343Z,3.45
2023-03-22T09:45:42.795Z,3.53
2023-03-22T09:48:17.640Z,3.30
2023-03-22T09:50:47.150Z,3.72
2023-03-22T09:53:15.870Z,3.75
2023-03-22T09:55:51.042Z,3.30
2023-03-22T09:58:42.379Z,3.33
2023-03-22T10:01:29.159Z,3.40
2023-03-22T10:04:18.883Z,3.42
2023-03-22T10:06:49.376Z,3.35
2023-03-22T10:09:36.215Z,3.28
2023-03-22T10:12:26.802Z,3.10
2023-03-22T10:15:04.462Z,3.55
2023-03-22T10:17:31.342Z,3.50
2023-03-22T10:20:07.982Z,2.95
2023-03-22T10:22:38.448Z,3.13
2023-03-22T10:25:06.188Z,2.90
2023-03-22T10:27:33.977Z,3.00
2023-03-22T10:30:12.733Z,2.88
2023-03-22T10:32:56.765Z,2.30
2023-03-22T10:35:23.924Z,2.55
2023-03-22T10:37:51.925Z,2.63
2023-03-22T10:40:29.056Z,2.20
2023-03-22T10:43:03.369Z,2.38
2023-03-22T10:45:32.099Z,2.80
2023-03-22T10:48:14.027Z,2.25
2023-03-22T10:50:43.467Z,2.60
2023-03-22T10:53:24.793Z,2.88
2023-03-22T10:55:51.368Z,2.55
2023-03-22T10:58:20.535Z,2.45
2023-03-22T11:00:58.485Z,2.63
2023-03-22T11:03:44.145Z,2.58
2023-03-22T11:06:27.304Z,2.45
2023-03-22T11:08:57.958Z,2.55
2023-03-22T11:11:28.599Z,2.20
2023-03-22T11:14:24.224Z,2.15
2023-03-22T11:16:57.854Z,2.30
2023-03-22T11:19:27.933Z,2.47
2023-03-22T11:21:55.524Z,2.45
2023-03-22T11:24:24.811Z,2.30
2023-03-22T11:27:17.152Z,2.33
2023-03-22T11:29:46.174Z,2.60
2023-03-22T11:32:21.958Z,2.65
2023-03-22T11:34:48.414Z,2.30
2023-03-22T11:37:18.239Z,2.33
2023-03-22T11:39:49.921Z,2.22
2023-03-22T11:42:19.752Z,2.50
2023-03-22T11:44:46.325Z,2.50
2023-03-22T11:47:13.982Z,2.55
2023-03-22T11:49:46.361Z,2.20
2023-03-22T11:54:42.658Z,2.50
2023-03-22T11:57:19.515Z,2.60
2023-03-22T11:59:49.435Z,2.30
2023-03-22T12:02:28.100Z,2.30
2023-03-22T12:05:03.658Z,2.70
2023-03-22T12:07:31.192Z,2.47
2023-03-22T12:10:06.775Z,2.40
2023-03-22T12:12:37.312Z,2.60
2023-03-22T12:15:21.817Z,2.78
2023-03-22T12:18:00.997Z,3.13
2023-03-22T12:20:35.179Z,2.72
2023-03-22T12:23:01.893Z,3.35
2023-03-22T12:25:35.746Z,2.80
2023-03-22T12:28:06.797Z,2.80
2023-03-22T12:30:48.059Z,2.90
2023-03-22T12:33:19.571Z,2.78
2023-03-22T12:35:47.395Z,3.03
2023-03-22T12:38:33.885Z,3.10
2023-03-22T12:41:03.107Z,3.17
2023-03-22T12:43:51.268Z,2.85
2023-03-22T12:46:21.573Z,3.42
2023-03-22T12:49:21.291Z,3.05
2023-03-22T12:51:48.943Z,2.50
2023-03-22T12:54:16.585Z,2.65
2023-03-22T12:56:46.505Z,3.05
2023-03-22T12:59:18.068Z,8.75
2023-03-22T13:01:52.149Z,4.40
2023-03-22T13:04:37.012Z,2.50
2023-03-22T13:07:16.163Z,2.58
2023-03-22T13:09:44.769Z,2.58
2023-03-22T13:12:17.340Z,3.28
2023-03-22T13:14:50.000Z,2.88
2023-03-22T13:17:22.293Z,2.80
2023-03-22T13:20:06.364Z,2.67
2023-03-22T13:22:38.904Z,2.42
2023-03-22T13:25:13.637Z,2.80
2023-03-22T13:27:45.829Z,2.80
2023-03-22T13:30:21.728Z,2.65
2023-03-22T13:32:56.021Z,2.35
2023-03-22T13:35:45.051Z,2.13
2023-03-22T13:38:34.177Z,2.38
2023-03-22T13:41:15.852Z,2.10
2023-03-22T13:43:53.964Z,2.13
2023-03-22T13:46:20.711Z,2.20
2023-03-22T13:48:47.279Z,1.98
2023-03-22T13:51:23.102Z,2.15
2023-03-22T13:54:17.454Z,2.20
2023-03-22T13:56:43.719Z,2.22
2023-03-22T13:59:13.312Z,2.40
2023-03-22T14:01:47.503Z,1.80
2023-03-22T14:04:22.521Z,1.77
2023-03-22T14:06:59.745Z,1.48
2023-03-22T14:09:31.540Z,1.52
2023-03-22T14:12:07.268Z,1.42
2023-03-22T14:14:36.791Z,1.60
2023-03-22T14:17:17.086Z,2.05
2023-03-22T14:19:43.499Z,1.88
